Time;durP1;ratioP1;P1;durP2;ratioP2;P2;SDS_P1;SDS_P2;PMS_P1;PMS_P2;Temp;Humidity;BMP_temperature;BMP_pressure;BME280_temperature;BME280_humidity;BME280_pressure;Samples;Min_cycle;Max_cycle;Signal;HPM_P1;HPM_P2
2022/03/06 00:00:44;;;;;;;18.60;12.07;;;1.90;99.90;;;;;;6249159;22;20022;-78
2022/03/06 00:03:10;;;;;;;15.48;11.23;;;1.60;99.90;;;;;;6275458;22;20007;-79
2022/03/06 00:05:36;;;;;;;15.55;9.82;;;1.60;99.90;;;;;;6273843;22;20073;-79
2022/03/06 00:08:02;;;;;;;19.45;10.75;;;1.70;99.90;;;;;;6248317;22;20023;-80
2022/03/06 00:10:29;;;;;;;13.63;9.88;;;1.70;99.90;;;;;;6250214;22;20012;-78
2022/03/06 00:12:55;;;;;;;14.80;9.43;;;1.70;99.90;;;;;;6250332;22;20011;-79
2022/03/06 00:15:22;;;;;;;18.15;10.88;;;1.80;99.90;;;;;;6273476;22;20034;-77
2022/03/06 00:17:49;;;;;;;20.80;10.27;;;1.70;99.90;;;;;;6274033;22;20022;-78
2022/03/06 00:20:15;;;;;;;14.70;9.77;;;1.80;99.90;;;;;;6275106;22;20339;-78
2022/03/06 00:22:41;;;;;;;14.68;10.02;;;1.80;99.90;;;;;;6249602;22;20442;-80
2022/03/06 00:25:07;;;;;;;18.08;10.23;;;1.80;99.90;;;;;;6274106;22;20079;-79
2022/03/06 00:27:33;;;;;;;15.35;9.55;;;1.80;99.90;;;;;;6246902;22;20019;-78
2022/03/06 00:29:59;;;;;;;13.63;9.30;;;1.80;99.90;;;;;;6272890;22;20126;-78
2022/03/06 00:32:25;;;;;;;13.40;8.82;;;1.80;99.90;;;;;;6303850;22;20019;-78
2022/03/06 00:34:51;;;;;;;14.20;8.82;;;1.80;99.90;;;;;;6275422;22;20013;-77
2022/03/06 00:37:16;;;;;;;15.88;9.40;;;1.80;99.90;;;;;;6274115;22;20439;-80
2022/03/06 00:39:43;;;;;;;16.50;9.13;;;1.80;99.90;;;;;;6248784;22;20072;-78
2022/03/06 00:42:10;;;;;;;14.65;8.45;;;1.80;99.90;;;;;;6248764;22;20019;-81
2022/03/06 00:44:36;;;;;;;14.98;9.15;;;1.70;99.90;;;;;;6273279;22;20055;-80
2022/03/06 00:47:03;;;;;;;14.27;8.60;;;1.80;99.90;;;;;;6272889;22;20391;-78
2022/03/06 00:49:28;;;;;;;14.43;8.75;;;1.70;99.90;;;;;;6268712;22;20341;-77
2022/03/06 00:51:54;;;;;;;16.15;8.93;;;1.70;99.90;;;;;;6268960;22;20091;-80
2022/03/06 00:54:20;;;;;;;16.92;8.60;;;1.70;99.90;;;;;;6272789;22;20432;-81
2022/03/06 00:56:46;;;;;;;11.10;8.10;;;1.70;99.90;;;;;;6274721;22;20033;-77
2022/03/06 00:59:12;;;;;;;16.05;7.88;;;1.70;99.90;;;;;;6273784;22;20041;-79
2022/03/06 01:01:37;;;;;;;18.85;7.93;;;1.70;99.90;;;;;;6249327;22;20118;-79
2022/03/06 01:04:03;;;;;;;11.93;8.00;;;1.70;99.90;;;;;;6249386;22;20022;-79
2022/03/06 01:06:29;;;;;;;12.63;7.45;;;1.80;99.90;;;;;;6274909;22;20019;-80
2022/03/06 01:08:56;;;;;;;13.27;8.38;;;1.80;99.90;;;;;;6274079;22;20122;-79
2022/03/06 01:11:21;;;;;;;13.68;8.13;;;1.80;99.90;;;;;;6249472;22;20015;-76
2022/03/06 01:13:47;;;;;;;13.93;7.68;;;1.80;99.90;;;;;;6268088;22;20015;-78
2022/03/06 01:16:13;;;;;;;12.98;8.10;;;1.80;99.90;;;;;;6243788;22;20325;-77
2022/03/06 01:18:39;;;;;;;11.25;7.32;;;1.90;99.90;;;;;;6260795;22;20019;-77
2022/03/06 01:21:05;;;;;;;14.25;8.18;;;1.80;99.90;;;;;;6274747;22;20022;-77
2022/03/06 01:23:31;;;;;;;11.75;7.90;;;1.90;99.90;;;;;;6234211;22;20470;-81
2022/03/06 01:25:57;;;;;;;14.98;8.43;;;1.80;99.90;;;;;;6218111;22;20015;-77
2022/03/06 01:28:23;;;;;;;13.18;8.27;;;1.80;99.90;;;;;;6246380;22;20023;-79
2022/03/06 01:30:49;;;;;;;16.00;8.65;;;1.70;99.90;;;;;;6264528;22;20007;-81
2022/03/06 01:33:15;;;;;;;12.43;7.55;;;1.70;99.90;;;;;;6271954;22;20019;-78
2022/03/06 01:35:40;;;;;;;13.32;7.78;;;1.70;99.90;;;;;;6260158;22;20011;-77
2022/03/06 01:38:06;;;;;;;11.82;7.20;;;1.70;99.90;;;;;;6246171;22;20463;-79
2022/03/06 01:40:32;;;;;;;12.10;7.13;;;1.80;99.90;;;;;;6274750;22;20305;-79
2022/03/06 01:42:57;;;;;;;12.63;6.75;;;1.70;99.90;;;;;;6240710;22;20090;-79
2022/03/06 01:45:24;;;;;;;10.55;7.03;;;1.80;99.90;;;;;;6270844;22;20012;-77
2022/03/06 01:47:54;;;;;;;11.82;7.18;;;1.80;99.90;;;;;;6263205;22;20018;-80
2022/03/06 01:50:27;;;;;;;10.27;6.53;;;1.80;99.90;;;;;;6246804;22;20331;-77
2022/03/06 01:52:55;;;;;;;12.88;6.68;;;1.90;99.90;;;;;;6239412;22;20016;-79
2022/03/06 01:55:24;;;;;;;10.52;6.93;;;1.80;99.90;;;;;;6271401;22;20012;-77
2022/03/06 01:57:51;;;;;;;13.02;7.45;;;1.70;99.90;;;;;;6270373;22;20202;-78
2022/03/06 02:00:22;;;;;;;12.07;7.10;;;1.70;99.90;;;;;;6266935;22;20016;-80
2022/03/06 02:02:48;;;;;;;11.95;6.63;;;1.60;99.90;;;;;;6263835;22;20011;-80
2022/03/06 02:05:14;;;;;;;12.55;6.85;;;1.60;99.90;;;;;;6271505;22;20094;-80
2022/03/06 02:07:40;;;;;;;14.55;7.05;;;1.70;99.90;;;;;;6261054;22;20431;-79
2022/03/06 02:10:08;;;;;;;13.15;6.97;;;1.60;99.90;;;;;;6271704;22;20027;-77
2022/03/06 02:12:34;;;;;;;11.68;6.43;;;1.60;99.90;;;;;;6259242;22;20008;-81
2022/03/06 02:15:04;;;;;;;9.98;6.47;;;1.60;99.90;;;;;;6269589;22;20129;-76
2022/03/06 02:17:30;;;;;;;10.52;6.10;;;1.60;99.90;;;;;;6271260;22;20088;-78
2022/03/06 02:20:03;;;;;;;9.57;5.60;;;1.60;99.90;;;;;;6271510;22;20094;-80
2022/03/06 02:22:34;;;;;;;8.82;5.88;;;1.60;99.90;;;;;;6233133;22;20012;-77
2022/03/06 02:25:02;;;;;;;9.18;5.18;;;1.70;99.90;;;;;;6273034;22;20016;-76
2022/03/06 02:27:28;;;;;;;13.18;5.22;;;1.70;99.90;;;;;;6270045;22;20047;-79
2022/03/06 02:29:54;;;;;;;10.65;5.22;;;1.70;99.90;;;;;;6270959;22;20062;-79
2022/03/06 02:32:21;;;;;;;10.65;5.00;;;1.70;99.90;;;;;;6244365;22;20092;-79
2022/03/06 02:34:48;;;;;;;9.60;5.05;;;1.70;99.90;;;;;;6261998;22;20050;-77
2022/03/06 02:37:18;;;;;;;10.23;4.70;;;1.70;99.90;;;;;;6245571;22;20309;-78
2022/03/06 02:39:45;;;;;;;8.02;4.57;;;1.80;99.90;;;;;;6237335;22;20012;-77
2022/03/06 02:42:21;;;;;;;9.20;4.78;;;1.80;99.90;;;;;;6271676;22;20090;-79
2022/03/06 02:44:47;;;;;;;7.22;4.43;;;1.70;99.90;;;;;;6262416;22;20065;-79
2022/03/06 02:47:13;;;;;;;7.93;4.22;;;1.70;99.90;;;;;;6270221;22;20094;-78
2022/03/06 02:49:38;;;;;;;6.72;4.47;;;1.70;99.90;;;;;;6262032;22;20018;-81
2022/03/06 02:52:08;;;;;;;12.98;4.60;;;1.70;99.90;;;;;;6272145;22;20102;-79
2022/03/06 02:54:34;;;;;;;9.50;4.95;;;1.70;99.90;;;;;;6234903;22;20015;-76
2022/03/06 02:56:59;;;;;;;13.13;4.93;;;1.70;99.90;;;;;;6272874;22;20091;-77
2022/03/06 02:59:25;;;;;;;8.23;4.57;;;1.70;99.90;;;;;;6273782;22;20087;-79
2022/03/06 03:01:51;;;;;;;9.05;4.88;;;1.70;99.90;;;;;;6264630;22;20125;-81
2022/03/06 03:04:16;;;;;;;9.20;4.57;;;1.60;99.90;;;;;;6246579;22;20008;-78
2022/03/06 03:06:42;;;;;;;8.80;4.38;;;1.60;99.90;;;;;;6236889;22;20038;-77
2022/03/06 03:09:08;;;;;;;8.02;4.93;;;1.60;99.90;;;;;;6272516;22;20488;-77
2022/03/06 03:11:34;;;;;;;7.97;5.30;;;1.60;99.90;;;;;;6261438;22;20116;-79
2022/03/06 03:14:01;;;;;;;9.18;4.65;;;1.60;99.90;;;;;;6245008;22;20031;-80
2022/03/06 03:16:27;;;;;;;6.97;4.93;;;1.50;99.90;;;;;;6246707;22;20022;-80
2022/03/06 03:18:53;;;;;;;8.35;4.78;;;1.50;99.90;;;;;;6271837;22;20008;-77
2022/03/06 03:21:19;;;;;;;10.55;5.38;;;1.60;99.90;;;;;;6272192;22;20371;-81
2022/03/06 03:23:45;;;;;;;9.75;5.38;;;1.60;99.90;;;;;;6237064;22;20091;-77
2022/03/06 03:26:11;;;;;;;10.45;5.15;;;1.60;99.90;;;;;;6272065;22;20019;-78
2022/03/06 03:28:37;;;;;;;7.18;4.75;;;1.60;99.90;;;;;;6234860;22;20023;-81
2022/03/06 03:31:02;;;;;;;12.02;5.30;;;1.60;99.90;;;;;;6246522;22;20007;-78
2022/03/06 03:33:28;;;;;;;8.48;5.03;;;1.60;99.90;;;;;;6274171;22;20012;-80
2022/03/06 03:35:54;;;;;;;9.13;5.20;;;1.60;99.90;;;;;;6265368;22;20012;-78
2022/03/06 03:38:19;;;;;;;9.90;5.25;;;1.70;99.90;;;;;;6272308;22;20020;-81
2022/03/06 03:40:45;;;;;;;8.45;5.20;;;1.60;99.90;;;;;;6263053;22;20304;-77
2022/03/06 03:43:10;;;;;;;8.30;4.75;;;1.70;99.90;;;;;;6271061;22;20019;-81
2022/03/06 03:45:37;;;;;;;8.98;4.97;;;1.60;99.90;;;;;;6235103;22;20065;-79
2022/03/06 03:48:03;;;;;;;12.05;5.25;;;1.50;99.90;;;;;;6272009;22;20038;-79
2022/03/06 03:50:29;;;;;;;9.18;4.95;;;1.50;99.90;;;;;;6259541;22;20076;-77
2022/03/06 03:52:54;;;;;;;11.45;4.78;;;1.40;99.90;;;;;;6246440;22;20160;-78
2022/03/06 03:55:20;;;;;;;10.50;5.47;;;1.40;99.90;;;;;;6271943;22;20014;-81
2022/03/06 03:57:46;;;;;;;15.90;5.68;;;1.40;99.90;;;;;;6263393;22;20016;-78
2022/03/06 04:00:12;;;;;;;15.10;5.72;;;1.40;99.90;;;;;;6270751;22;20433;-80
2022/03/06 04:02:37;;;;;;;10.10;5.75;;;1.30;99.90;;;;;;6273598;22;20016;-79
2022/03/06 04:05:04;;;;;;;10.88;5.45;;;1.40;99.90;;;;;;6240435;22;20038;-81
2022/03/06 04:07:30;;;;;;;11.75;4.97;;;1.40;99.90;;;;;;6259792;22;20038;-77
2022/03/06 04:09:55;;;;;;;10.23;4.88;;;1.40;99.90;;;;;;6246372;22;20012;-81
2022/03/06 04:12:21;;;;;;;10.77;5.60;;;1.30;99.90;;;;;;6273662;22;20019;-77
2022/03/06 04:14:47;;;;;;;8.40;5.40;;;1.30;99.90;;;;;;6236557;22;20442;-77
2022/03/06 04:17:12;;;;;;;11.15;5.68;;;1.20;99.90;;;;;;6271528;22;20072;-77
2022/03/06 04:19:38;;;;;;;14.60;6.28;;;1.20;99.90;;;;;;6259522;22;20095;-78
2022/03/06 04:22:04;;;;;;;13.90;5.13;;;1.20;99.90;;;;;;6246889;22;20091;-79
2022/03/06 04:24:30;;;;;;;10.40;5.40;;;1.10;99.90;;;;;;6260693;22;20012;-77
2022/03/06 04:26:55;;;;;;;12.77;5.60;;;1.00;99.90;;;;;;6244728;22;20064;-80
2022/03/06 04:29:21;;;;;;;10.98;5.53;;;1.00;99.90;;;;;;6270606;22;20034;-78
2022/03/06 04:31:47;;;;;;;12.00;5.20;;;1.00;99.90;;;;;;6237592;22;20069;-78
2022/03/06 04:34:13;;;;;;;8.05;5.18;;;1.00;99.90;;;;;;6271382;22;20030;-79
2022/03/06 04:36:38;;;;;;;14.27;5.78;;;1.00;99.90;;;;;;6273534;22;20016;-78
2022/03/06 04:39:05;;;;;;;10.65;5.05;;;0.90;99.90;;;;;;6266615;22;20015;-81
2022/03/06 04:41:31;;;;;;;10.45;5.60;;;0.80;99.90;;;;;;6273448;22;20094;-78
2022/03/06 04:43:57;;;;;;;10.20;5.78;;;0.80;99.90;;;;;;6263523;22;20016;-82
2022/03/06 04:46:23;;;;;;;11.52;6.05;;;0.70;99.90;;;;;;6245913;22;20020;-76
2022/03/06 04:48:49;;;;;;;11.07;6.07;;;0.70;99.90;;;;;;6262984;22;20098;-80
2022/03/06 04:51:15;;;;;;;10.15;5.68;;;0.60;99.90;;;;;;6273331;22;20022;-79
2022/03/06 04:53:41;;;;;;;10.00;5.78;;;0.60;99.90;;;;;;6238717;22;20520;-77
2022/03/06 04:56:07;;;;;;;12.07;5.40;;;0.60;99.90;;;;;;6274732;22;20012;-80
2022/03/06 04:58:33;;;;;;;12.98;5.68;;;0.60;99.90;;;;;;6275903;22;20016;-81
2022/03/06 05:00:58;;;;;;;9.90;5.38;;;0.50;99.90;;;;;;6243482;22;20019;-81
2022/03/06 05:03:24;;;;;;;9.50;5.13;;;0.50;99.90;;;;;;6274634;22;20126;-78
2022/03/06 05:05:50;;;;;;;11.75;5.15;;;0.50;99.90;;;;;;6240548;22;20347;-77
2022/03/06 05:08:16;;;;;;;11.23;5.13;;;0.50;99.90;;;;;;6274608;22;20019;-77
2022/03/06 05:10:42;;;;;;;9.25;4.88;;;0.40;99.90;;;;;;6265709;22;20038;-79
2022/03/06 05:13:09;;;;;;;10.38;5.50;;;0.40;99.90;;;;;;6249278;22;20412;-80
2022/03/06 05:15:35;;;;;;;11.27;5.38;;;0.30;99.90;;;;;;6269359;22;20050;-80
2022/03/06 05:18:01;;;;;;;8.65;5.25;;;0.30;99.90;;;;;;6249735;22;20019;-82
2022/03/06 05:20:27;;;;;;;12.23;5.13;;;0.30;99.90;;;;;;6275090;22;20016;-80
2022/03/06 05:22:53;;;;;;;9.63;5.03;;;0.20;99.90;;;;;;6250445;22;20015;-77
2022/03/06 05:25:18;;;;;;;11.38;5.43;;;0.20;99.90;;;;;;6278713;22;20015;-82
2022/03/06 05:27:45;;;;;;;8.88;4.82;;;0.20;99.90;;;;;;6255045;22;20077;-78
2022/03/06 05:30:12;;;;;;;8.85;5.00;;;0.30;99.90;;;;;;6307222;22;20011;-82
2022/03/06 05:32:38;;;;;;;10.80;5.15;;;0.10;99.90;;;;;;6280681;22;20017;-80
2022/03/06 05:35:04;;;;;;;8.02;4.82;;;0.20;99.90;;;;;;6279784;22;20038;-79
2022/03/06 05:37:30;;;;;;;10.23;5.20;;;0.20;99.90;;;;;;6280461;22;20054;-79
2022/03/06 05:39:56;;;;;;;11.27;4.70;;;0.30;99.90;;;;;;6254684;22;20015;-81
2022/03/06 05:42:22;;;;;;;7.22;4.30;;;0.30;99.90;;;;;;6280534;22;20043;-81
2022/03/06 05:44:47;;;;;;;9.20;4.45;;;0.20;99.90;;;;;;6278877;22;20019;-79
2022/03/06 05:47:13;;;;;;;9.27;4.45;;;0.20;99.90;;;;;;6254473;22;20098;-79
2022/03/06 05:49:39;;;;;;;8.80;4.55;;;0.20;99.90;;;;;;6279695;22;20026;-83
2022/03/06 05:52:05;;;;;;;8.23;4.60;;;0.10;99.90;;;;;;6279903;22;20011;-78
2022/03/06 05:54:31;;;;;;;8.15;4.43;;;0.10;99.90;;;;;;6279852;22;20018;-80
2022/03/06 05:56:57;;;;;;;11.55;4.70;;;0.10;99.90;;;;;;6253876;22;20315;-78
2022/03/06 05:59:23;;;;;;;8.63;4.57;;;0.10;99.90;;;;;;6252904;22;20019;-80
2022/03/06 06:01:49;;;;;;;12.38;4.70;;;0.10;99.90;;;;;;6254162;22;20458;-81
2022/03/06 06:04:15;;;;;;;12.65;5.38;;;0.20;99.90;;;;;;6279275;22;20011;-79
2022/03/06 06:06:40;;;;;;;9.57;4.68;;;0.20;99.90;;;;;;6254506;22;20094;-80
2022/03/06 06:09:06;;;;;;;9.20;4.82;;;0.10;99.90;;;;;;6285649;22;20309;-82
2022/03/06 06:11:32;;;;;;;8.10;4.80;;;0.00;99.90;;;;;;6253346;22;20061;-80
2022/03/06 06:13:58;;;;;;;11.27;4.80;;;0.10;99.90;;;;;;6277087;22;20451;-78
2022/03/06 06:16:24;;;;;;;9.13;4.30;;;0.10;99.90;;;;;;6277828;22;20026;-82
2022/03/06 06:18:49;;;;;;;7.28;4.38;;;0.00;99.90;;;;;;6278228;22;20049;-82
2022/03/06 06:21:16;;;;;;;11.30;4.78;;;0.10;99.90;;;;;;6278252;22;20035;-78
2022/03/06 06:23:42;;;;;;;9.25;4.47;;;0.00;99.90;;;;;;6252369;22;20015;-80
2022/03/06 06:26:08;;;;;;;10.63;4.50;;;0.00;99.90;;;;;;6277495;22;20037;-78
2022/03/06 06:28:34;;;;;;;6.93;3.70;;;0.10;99.90;;;;;;6276810;22;20104;-80
2022/03/06 06:31:00;;;;;;;5.38;3.35;;;0.10;99.90;;;;;;6252096;22;20027;-77
2022/03/06 06:33:26;;;;;;;6.60;3.20;;;0.10;99.90;;;;;;6277698;22;20015;-79
2022/03/06 06:35:52;;;;;;;8.35;3.42;;;0.10;99.90;;;;;;6278249;22;20014;-78
2022/03/06 06:38:18;;;;;;;8.90;3.03;;;0.10;99.90;;;;;;6251478;22;20413;-80
2022/03/06 06:40:43;;;;;;;5.80;3.15;;;0.20;99.90;;;;;;6278139;22;20107;-78
2022/03/06 06:43:09;;;;;;;7.72;2.92;;;0.20;99.90;;;;;;6277895;22;20423;-76
2022/03/06 06:45:34;;;;;;;4.22;2.38;;;0.30;99.90;;;;;;6277013;22;20022;-81
2022/03/06 06:48:01;;;;;;;4.40;2.80;;;0.20;99.90;;;;;;6306230;22;20012;-79
2022/03/06 06:50:26;;;;;;;5.00;2.70;;;0.30;99.90;;;;;;6252353;22;20335;-81
2022/03/06 06:52:52;;;;;;;5.15;2.45;;;0.30;99.90;;;;;;6277720;22;20026;-78
2022/03/06 06:55:18;;;;;;;6.25;2.50;;;0.30;99.90;;;;;;6306145;22;20479;-79
2022/03/06 06:57:43;;;;;;;8.63;3.03;;;0.50;99.90;;;;;;6263476;22;20041;-80
2022/03/06 07:00:09;;;;;;;4.70;2.70;;;0.40;99.90;;;;;;6243128;22;20019;-78
2022/03/06 07:02:35;;;;;;;3.45;2.50;;;0.40;99.90;;;;;;6252571;22;20045;-81
2022/03/06 07:05:02;;;;;;;5.63;2.28;;;0.40;99.90;;;;;;6277470;22;20019;-81
2022/03/06 07:07:28;;;;;;;4.22;2.70;;;0.50;99.90;;;;;;6277701;22;20018;-79
2022/03/06 07:09:53;;;;;;;6.25;2.35;;;0.50;99.90;;;;;;6278477;22;20015;-78
2022/03/06 07:12:19;;;;;;;4.63;2.28;;;0.50;99.90;;;;;;6278531;22;20042;-80
2022/03/06 07:14:44;;;;;;;3.78;2.50;;;0.50;99.90;;;;;;6246185;22;20304;-78
2022/03/06 07:17:10;;;;;;;2.97;2.28;;;0.50;99.90;;;;;;6272814;22;20367;-78
2022/03/06 07:19:36;;;;;;;4.55;2.65;;;0.60;99.90;;;;;;6236353;22;20015;-78
2022/03/06 07:22:01;;;;;;;4.05;2.40;;;0.70;99.90;;;;;;6275373;22;20069;-79
2022/03/06 07:24:27;;;;;;;4.40;2.38;;;0.70;99.90;;;;;;6260248;22;20321;-80
2022/03/06 07:26:53;;;;;;;2.60;2.20;;;0.90;99.90;;;;;;6272103;22;20458;-78
2022/03/06 07:29:18;;;;;;;5.95;2.65;;;1.00;99.90;;;;;;6270574;22;20043;-78
2022/03/06 07:31:44;;;;;;;5.40;2.60;;;0.90;99.90;;;;;;6262461;22;20011;-77
2022/03/06 07:34:10;;;;;;;4.20;2.42;;;1.00;99.90;;;;;;6245844;22;20448;-78
2022/03/06 07:36:35;;;;;;;4.45;2.80;;;1.00;99.90;;;;;;6234903;22;20016;-76
2022/03/06 07:39:01;;;;;;;4.35;2.70;;;1.00;99.90;;;;;;6270789;22;20062;-80
2022/03/06 07:41:27;;;;;;;6.85;2.88;;;1.10;99.90;;;;;;6246929;22;20022;-79
2022/03/06 07:43:52;;;;;;;6.30;2.58;;;1.10;99.90;;;;;;6245733;22;20011;-78
2022/03/06 07:46:18;;;;;;;4.93;2.22;;;1.10;99.90;;;;;;6271739;22;20403;-79
2022/03/06 07:48:43;;;;;;;5.65;2.42;;;1.30;99.90;;;;;;6236793;22;20019;-76
2022/03/06 07:51:09;;;;;;;3.90;2.33;;;1.30;99.90;;;;;;6246550;22;20029;-77
2022/03/06 07:53:35;;;;;;;4.20;2.42;;;1.40;99.90;;;;;;6235549;22;20011;-79
2022/03/06 07:56:00;;;;;;;4.95;2.33;;;1.40;99.90;;;;;;6271897;22;20340;-79
2022/03/06 07:58:26;;;;;;;3.55;1.98;;;1.40;99.90;;;;;;6270472;22;20016;-80
2022/03/06 08:00:52;;;;;;;5.53;2.00;;;1.50;99.90;;;;;;6264576;22;20057;-81
2022/03/06 08:03:17;;;;;;;5.28;2.40;;;1.60;99.90;;;;;;6245598;22;20094;-81
2022/03/06 08:05:44;;;;;;;3.58;2.05;;;1.60;99.90;;;;;;6262320;22;20018;-78
2022/03/06 08:08:10;;;;;;;4.38;2.20;;;2.00;99.90;;;;;;6246138;22;20019;-79
2022/03/06 08:10:36;;;;;;;3.92;2.40;;;1.70;99.90;;;;;;6235040;22;20035;-79
2022/03/06 08:13:02;;;;;;;5.13;2.10;;;1.80;99.90;;;;;;6245359;22;20011;-77
2022/03/06 08:15:27;;;;;;;5.93;2.25;;;1.80;99.90;;;;;;6244451;22;20024;-77
2022/03/06 08:17:53;;;;;;;7.63;2.10;;;1.90;99.90;;;;;;6271762;22;20039;-77
2022/03/06 08:20:19;;;;;;;5.43;2.35;;;2.00;99.90;;;;;;6271520;22;20094;-79
2022/03/06 08:22:45;;;;;;;3.22;1.92;;;2.00;99.90;;;;;;6262857;22;20455;-81
2022/03/06 08:25:11;;;;;;;5.03;2.30;;;2.00;99.90;;;;;;6270570;22;20431;-85
2022/03/06 08:27:37;;;;;;;6.45;2.45;;;2.10;99.90;;;;;;6259350;22;20011;-80
2022/03/06 08:30:05;;;;;;;4.05;2.10;;;2.10;99.90;;;;;;6244011;22;20008;-78
2022/03/06 08:32:30;;;;;;;3.15;2.00;;;2.10;99.90;;;;;;6258863;22;20011;-79
2022/03/06 08:34:57;;;;;;;5.93;2.28;;;2.20;99.90;;;;;;6245260;22;20061;-79
2022/03/06 08:37:22;;;;;;;5.07;2.20;;;2.30;99.90;;;;;;6270669;22;20055;-81
2022/03/06 08:39:49;;;;;;;5.32;2.55;;;2.30;99.90;;;;;;6262568;22;20015;-76
2022/03/06 08:42:15;;;;;;;4.68;2.50;;;2.40;99.90;;;;;;6243399;22;20281;-79
2022/03/06 08:44:42;;;;;;;6.97;2.42;;;2.40;99.90;;;;;;6260137;22;20062;-81
2022/03/06 08:47:09;;;;;;;6.10;2.10;;;2.50;99.90;;;;;;6244675;22;20435;-75
2022/03/06 08:49:35;;;;;;;5.88;2.00;;;2.50;99.90;;;;;;6259499;22;20389;-78
2022/03/06 08:52:01;;;;;;;4.88;1.95;;;4.00;99.90;;;;;;6268884;22;20414;-79
2022/03/06 08:54:27;;;;;;;5.15;2.10;;;3.50;99.90;;;;;;6269374;22;20083;-78
2022/03/06 08:56:53;;;;;;;6.10;2.20;;;3.10;99.90;;;;;;6268773;22;20458;-77
2022/03/06 08:59:21;;;;;;;5.57;2.10;;;3.10;99.90;;;;;;6268387;22;20447;-78
2022/03/06 09:01:47;;;;;;;4.28;1.98;;;3.00;99.90;;;;;;6235128;22;20016;-79
2022/03/06 09:04:14;;;;;;;3.92;1.80;;;3.00;99.90;;;;;;6268489;22;20023;-82
2022/03/06 09:06:43;;;;;;;4.93;1.98;;;2.90;99.90;;;;;;6260603;22;20026;-82
2022/03/06 09:09:09;;;;;;;3.05;1.88;;;2.90;99.90;;;;;;6270142;22;20023;-82
2022/03/06 09:11:47;;;;;;;4.78;2.22;;;2.90;99.90;;;;;;6259398;22;20008;-80
2022/03/06 09:14:44;;;;;;;4.55;2.08;;;2.90;99.90;;;;;;6285097;22;20026;-79
2022/03/06 09:17:10;;;;;;;3.97;1.98;;;3.00;99.90;;;;;;6271979;22;20401;-83
2022/03/06 09:19:36;;;;;;;6.70;2.10;;;3.50;99.90;;;;;;6269915;22;20020;-80
2022/03/06 09:22:01;;;;;;;4.20;2.08;;;3.00;99.90;;;;;;6245003;22;20008;-80
2022/03/06 09:24:27;;;;;;;3.40;1.85;;;2.90;99.90;;;;;;6270845;22;20030;-76
2022/03/06 09:26:53;;;;;;;5.95;2.10;;;3.00;99.90;;;;;;6245479;22;20018;-77
2022/03/06 09:29:18;;;;;;;5.57;2.60;;;3.10;99.90;;;;;;6299850;22;20094;-79
2022/03/06 09:31:44;;;;;;;3.72;2.35;;;3.10;99.90;;;;;;6243983;22;20016;-74
2022/03/06 09:34:10;;;;;;;7.03;2.25;;;3.10;99.90;;;;;;6271976;22;20011;-82
2022/03/06 09:36:37;;;;;;;7.32;2.75;;;3.10;99.90;;;;;;6244361;22;20024;-80
2022/03/06 09:39:05;;;;;;;6.35;1.98;;;3.20;99.90;;;;;;6269731;22;20019;-83
2022/03/06 09:41:31;;;;;;;4.38;2.33;;;3.20;99.90;;;;;;6273711;22;20354;-81
2022/03/06 09:43:57;;;;;;;4.93;2.33;;;3.30;99.90;;;;;;6271879;22;20016;-85
2022/03/06 09:46:26;;;;;;;4.80;2.17;;;3.40;99.90;;;;;;6227982;22;20048;-81
2022/03/06 09:48:52;;;;;;;5.25;2.50;;;3.40;99.90;;;;;;6274146;22;20043;-82
2022/03/06 09:51:23;;;;;;;4.80;2.13;;;3.40;99.90;;;;;;6273134;22;20371;-82
2022/03/06 09:53:49;;;;;;;5.82;2.50;;;3.50;99.90;;;;;;6245328;22;20008;-82
2022/03/06 09:56:15;;;;;;;5.88;2.42;;;3.50;99.90;;;;;;6247958;22;20276;-83
2022/03/06 09:58:40;;;;;;;6.05;2.50;;;3.70;99.90;;;;;;6244282;22;20408;-82
2022/03/06 10:01:06;;;;;;;6.50;2.55;;;4.10;99.90;;;;;;6272763;22;20446;-86
2022/03/06 10:03:37;;;;;;;4.82;2.40;;;4.00;99.90;;;;;;6272851;22;20054;-83
2022/03/06 10:06:07;;;;;;;4.88;2.35;;;4.20;99.90;;;;;;6271324;22;20015;-82
2022/03/06 10:08:34;;;;;;;6.65;2.10;;;4.40;99.90;;;;;;6245046;22;20125;-80
2022/03/06 10:11:02;;;;;;;4.25;2.50;;;4.30;99.90;;;;;;6271285;22;20682;-79
2022/03/06 10:13:40;;;;;;;5.18;2.53;;;4.90;99.90;;;;;;6245352;22;20008;-83
2022/03/06 10:16:24;;;;;;;5.47;3.08;;;4.50;99.90;;;;;;6272241;22;20069;-82
2022/03/06 10:18:55;;;;;;;7.68;2.78;;;4.80;99.90;;;;;;6247669;22;20026;-80
2022/03/06 10:21:29;;;;;;;7.15;2.85;;;5.00;99.90;;;;;;6275907;22;20062;-82
2022/03/06 10:24:08;;;;;;;3.80;2.33;;;4.90;99.90;;;;;;6246630;22;20037;-80
2022/03/06 10:26:36;;;;;;;5.90;2.30;;;4.70;99.90;;;;;;6293969;22;20544;-82
2022/03/06 10:29:11;;;;;;;5.10;2.50;;;4.70;99.90;;;;;;6245846;22;20067;-82
2022/03/06 10:31:52;;;;;;;10.45;2.85;;;4.50;99.90;;;;;;6265250;22;20019;-80
2022/03/06 10:34:19;;;;;;;6.53;2.80;;;4.60;99.90;;;;;;6250655;22;20034;-81
2022/03/06 10:36:46;;;;;;;4.70;2.60;;;4.60;99.90;;;;;;6271674;22;20018;-81
2022/03/06 10:39:17;;;;;;;5.50;2.55;;;4.70;99.90;;;;;;6274329;22;20073;-79
2022/03/06 10:41:49;;;;;;;5.60;2.58;;;4.90;99.90;;;;;;6247700;22;20435;-79
2022/03/06 10:44:16;;;;;;;4.78;2.30;;;4.80;99.90;;;;;;6274678;22;20012;-80
2022/03/06 10:46:56;;;;;;;4.30;2.65;;;5.00;99.90;;;;;;6247297;22;20011;-81
2022/03/06 10:49:22;;;;;;;4.40;2.22;;;5.20;99.90;;;;;;6277214;22;20015;-80
2022/03/06 10:51:52;;;;;;;6.97;2.70;;;5.10;99.90;;;;;;6271638;22;20011;-80
2022/03/06 10:54:19;;;;;;;4.82;2.65;;;5.20;99.90;;;;;;6248921;22;20027;-82
2022/03/06 10:56:49;;;;;;;5.93;2.65;;;5.40;99.90;;;;;;6271948;22;20016;-82
2022/03/06 10:59:19;;;;;;;3.30;2.25;;;5.70;99.90;;;;;;6247092;22;20141;-81
2022/03/06 11:01:47;;;;;;;5.90;2.40;;;5.60;99.90;;;;;;6220705;22;20082;-79
2022/03/06 11:04:15;;;;;;;5.60;3.08;;;5.70;99.90;;;;;;6247823;22;20034;-80
2022/03/06 11:06:45;;;;;;;3.65;2.13;;;5.70;99.90;;;;;;6270226;22;20054;-81
2022/03/06 11:09:21;;;;;;;6.65;2.63;;;5.80;99.90;;;;;;6302013;22;20015;-82
2022/03/06 11:12:14;;;;;;;5.47;2.33;;;5.80;99.90;;;;;;6218803;22;20435;-83
2022/03/06 11:15:10;;;;;;;4.85;2.33;;;6.00;99.90;;;;;;6272258;22;20095;-82
2022/03/06 11:18:05;;;;;;;3.95;2.20;;;6.30;99.90;;;;;;6249251;22;20024;-82
2022/03/06 11:21:00;;;;;;;3.78;2.47;;;6.10;99.90;;;;;;6272888;22;20069;-82
2022/03/06 11:23:48;;;;;;;7.10;2.65;;;6.20;99.90;;;;;;6272805;22;20481;-82
2022/03/06 11:26:45;;;;;;;5.72;2.40;;;6.20;99.90;;;;;;6290329;22;20120;-83
2022/03/06 11:29:44;;;;;;;9.13;2.50;;;5.80;99.90;;;;;;6273973;22;20011;-82
2022/03/06 11:32:45;;;;;;;5.45;2.67;;;5.90;99.90;;;;;;6273311;22;20015;-82
2022/03/06 11:35:30;;;;;;;6.75;2.90;;;5.60;99.90;;;;;;6249124;22;20011;-82
2022/03/06 11:38:01;;;;;;;6.95;2.72;;;6.20;99.90;;;;;;6248105;22;20086;-82
2022/03/06 11:40:55;;;;;;;6.50;2.83;;;6.00;99.90;;;;;;6247953;22;20455;-84
2022/03/06 11:44:02;;;;;;;5.25;2.75;;;6.50;99.90;;;;;;6246648;22;20095;-82
2022/03/06 11:50:38;;;;;;;10.65;2.75;;;6.30;99.90;;;;;;6240817;23;20305;-82
2022/03/06 11:54:35;;;;;;;5.05;2.75;;;7.00;99.90;;;;;;6194639;23;20046;-83
2022/03/06 12:01:40;;;;;;;6.55;2.53;;;6.40;99.90;;;;;;6034445;23;20352;-81
2022/03/06 12:04:33;;;;;;;4.22;2.40;;;6.40;99.90;;;;;;6009265;23;20020;-81
2022/03/06 12:07:39;;;;;;;4.97;2.75;;;6.60;99.90;;;;;;6010306;23;20030;-82
2022/03/06 12:10:43;;;;;;;4.97;2.40;;;6.10;99.90;;;;;;6034272;23;20019;-81
2022/03/06 12:13:29;;;;;;;4.97;2.03;;;6.00;99.90;;;;;;5900393;24;20021;-82
2022/03/06 12:16:28;;;;;;;5.75;2.45;;;6.00;99.90;;;;;;5915666;24;20120;-82
2022/03/06 12:20:10;;;;;;;4.07;1.98;;;6.20;99.90;;;;;;5895126;24;20078;-81
2022/03/06 12:23:32;;;;;;;4.72;2.50;;;6.50;99.90;;;;;;5895935;24;20127;-82
2022/03/06 12:25:59;;;;;;;5.28;2.20;;;6.50;99.90;;;;;;5894255;23;20112;-79
2022/03/06 12:28:30;;;;;;;5.28;2.50;;;6.40;99.90;;;;;;6012000;23;20297;-79
2022/03/06 12:30:57;;;;;;;9.25;2.58;;;6.40;99.90;;;;;;6070365;23;20083;-78
2022/03/06 12:33:38;;;;;;;5.93;2.80;;;6.60;99.90;;;;;;6147566;23;20354;-78
2022/03/06 12:36:09;;;;;;;4.38;2.30;;;6.60;99.90;;;;;;6124181;23;20013;-80
2022/03/06 12:38:34;;;;;;;4.43;2.63;;;6.70;99.90;;;;;;6123747;23;20053;-78
2022/03/06 12:41:00;;;;;;;7.55;2.22;;;6.60;99.90;;;;;;6097964;23;20089;-78
2022/03/06 12:43:28;;;;;;;5.93;2.60;;;6.60;99.90;;;;;;6097507;23;20079;-78
2022/03/06 12:45:54;;;;;;;5.18;2.35;;;6.80;99.90;;;;;;6123201;23;20022;-82
2022/03/06 12:48:22;;;;;;;4.65;2.55;;;6.90;99.90;;;;;;6123014;23;20013;-80
2022/03/06 12:50:48;;;;;;;7.22;2.63;;;6.80;99.90;;;;;;6185842;22;20039;-81
2022/03/06 12:53:17;;;;;;;6.50;2.67;;;6.70;99.90;;;;;;6245490;22;20031;-81
2022/03/06 12:55:43;;;;;;;8.98;2.72;;;6.60;99.90;;;;;;6245183;22;20016;-80
2022/03/06 12:58:09;;;;;;;4.80;2.35;;;6.50;99.90;;;;;;6243424;22;20048;-81
2022/03/06 13:00:38;;;;;;;5.63;2.30;;;6.60;99.90;;;;;;6219107;22;20023;-81
2022/03/06 13:03:16;;;;;;;5.72;2.40;;;6.60;99.90;;;;;;6244398;22;20016;-82
2022/03/06 13:05:48;;;;;;;6.15;2.15;;;6.80;99.90;;;;;;6273241;22;20020;-82
2022/03/06 13:08:43;;;;;;;5.20;2.58;;;6.60;99.90;;;;;;6245240;22;20015;-83
2022/03/06 13:11:40;;;;;;;;;;;6.80;99.90;;;;;;6220275;22;20443;-82